Time;durP1;ratioP1;P1;durP2;ratioP2;P2;SDS_P1;SDS_P2;PMS_P1;PMS_P2;Temp;Humidity;BMP_temperature;BMP_pressure;BME280_temperature;BME280_humidity;BME280_pressure;Samples;Min_cycle;Max_cycle;Signal;HPM_P1;HPM_P2
2022/11/16 00:01:21;;;;;;;;;;;;;;;;;;4420538;32;20049;-75
2022/11/16 00:03:46;;;;;;;42.47;29.77;;;;;;;;;;4408271;32;19933;-75
2022/11/16 00:06:12;;;;;;;;;;;;;;;;;;4420844;32;20164;-76
2022/11/16 00:08:38;;;;;;;37.75;30.25;;;;;;;;;;4420377;32;19971;-76
2022/11/16 00:11:05;;;;;;;40.08;30.62;;;;;;;;;;4422156;32;20029;-77
2022/11/16 00:13:31;;;;;;;34.22;28.77;;;;;;;;;;4420628;32;20050;-76
2022/11/16 00:15:56;;;;;;;36.78;28.45;;;;;;;;;;4407624;32;20033;-76
2022/11/16 00:18:21;;;;;;;;;;;;;;;;;;4425464;32;20033;-76
2022/11/16 00:20:47;;;;;;;40.05;30.30;;;;;;;;;;4426252;32;19933;-76
2022/11/16 00:23:12;;;;;;;39.35;31.37;;;;;;;;;;4421248;32;20022;-75
2022/11/16 00:25:37;;;;;;;39.72;29.98;;;;;;;;;;4408255;32;20045;-75
2022/11/16 00:28:02;;;;;;;37.75;30.37;;;;;;;;;;4421758;32;20042;-75
2022/11/16 00:30:27;;;;;;;37.55;28.40;;;;;;;;;;4420243;32;20085;-76
2022/11/16 00:32:52;;;;;;;40.97;30.73;;;;;;;;;;4421678;32;20066;-75
2022/11/16 00:35:18;;;;;;;37.45;29.48;;;;;;;;;;4421811;32;20079;-75
2022/11/16 00:37:43;;;;;;;;;;;;;;;;;;4421791;32;20048;-75
2022/11/16 00:40:08;;;;;;;40.28;29.77;;;;;;;;;;4420094;32;19937;-75
2022/11/16 00:42:33;;;;;;;40.85;30.08;;;;;;;;;;4420655;32;20101;-75
2022/11/16 00:44:59;;;;;;;38.40;31.73;;;;;;;;;;4420284;32;20477;-75
2022/11/16 00:47:25;;;;;;;44.17;32.95;;;;;;;;;;4421741;32;20022;-75
2022/11/16 00:49:50;;;;;;;39.45;31.90;;;;;;;;;;4420838;32;20064;-75
2022/11/16 00:52:15;;;;;;;;;;;;;;;;;;4421632;32;20052;-75
2022/11/16 00:54:40;;;;;;;41.10;31.45;;;;;;;;;;4420440;32;19978;-77
2022/11/16 00:57:06;;;;;;;35.10;30.65;;;;;;;;;;4407694;32;20155;-75
2022/11/16 00:59:31;;;;;;;;;;;;;;;;;;4421203;32;20049;-74
2022/11/16 01:01:56;;;;;;;37.83;31.23;;;;;;;;;;4408095;32;19941;-75
2022/11/16 01:04:21;;;;;;;;;;;;;;;;;;4408575;32;20173;-74
2022/11/16 01:06:46;;;;;;;41.25;31.27;;;;;;;;;;4425944;32;19945;-75
2022/11/16 01:09:11;;;;;;;41.60;33.25;;;;;;;;;;4424909;32;20030;-75
2022/11/16 01:14:21;;;;;;;47.72;34.55;;;;;;;;;;4423873;32;20113;-75
2022/11/16 01:16:46;;;;;;;;;;;;;;;;;;4424199;32;20352;-74
2022/11/16 01:19:11;;;;;;;43.38;34.10;;;;;;;;;;4424936;32;19942;-75
2022/11/16 01:21:36;;;;;;;45.53;33.80;;;;;;;;;;4422739;32;20065;-76
2022/11/16 01:24:01;;;;;;;44.13;32.65;;;;;;;;;;4422712;32;20048;-76
2022/11/16 01:26:26;;;;;;;38.97;31.35;;;;;;;;;;4409002;32;20087;-76
2022/11/16 01:28:52;;;;;;;35.03;30.25;;;;;;;;;;4423277;32;20407;-75
2022/11/16 01:31:17;;;;;;;34.35;29.40;;;;;;;;;;4409458;32;20071;-76
2022/11/16 01:33:42;;;;;;;42.78;31.25;;;;;;;;;;4424689;32;20025;-75
2022/11/16 01:36:07;;;;;;;;;;;;;;;;;;4408968;32;20080;-75
2022/11/16 01:38:32;;;;;;;39.42;30.92;;;;;;;;;;4423910;32;19937;-75
2022/11/16 01:40:58;;;;;;;39.55;31.60;;;;;;;;;;4423630;32;20052;-75
2022/11/16 01:43:23;;;;;;;37.13;31.00;;;;;;;;;;4410681;32;20087;-75
2022/11/16 01:45:49;;;;;;;31.40;28.02;;;;;;;;;;4424162;32;20026;-75
2022/11/16 01:48:16;;;;;;;31.40;26.95;;;;;;;;;;4422738;32;20018;-75
2022/11/16 01:50:42;;;;;;;39.72;28.92;;;;;;;;;;4422856;32;20441;-75
2022/11/16 01:53:07;;;;;;;;;;;;;;;;;;4423052;32;20030;-75
2022/11/16 01:55:33;;;;;;;30.42;26.67;;;;;;;;;;4423123;32;19941;-75
2022/11/16 01:57:59;;;;;;;38.55;32.45;;;;;;;;;;4424085;32;20132;-74
2022/11/16 02:00:24;;;;;;;;;;;;;;;;;;4408874;32;20026;-76
2022/11/16 02:02:49;;;;;;;32.13;28.17;;;;;;;;;;4408222;32;20028;-75
2022/11/16 02:05:17;;;;;;;28.50;24.92;;;;;;;;;;4408275;32;20428;-76
2022/11/16 02:10:43;;;;;;;30.50;26.25;;;;;;;;;;4424577;32;20041;-75
2022/11/16 02:13:17;;;;;;;32.60;24.65;;;;;;;;;;4425111;32;20102;-75
2022/11/16 02:15:42;;;;;;;30.12;26.80;;;;;;;;;;4422582;32;20086;-76
2022/11/16 02:18:07;;;;;;;;;;;;;;;;;;4423479;32;20460;-75
2022/11/16 02:20:32;;;;;;;36.53;29.02;;;;;;;;;;4423729;32;19933;-75
2022/11/16 02:23:06;;;;;;;29.37;26.20;;;;;;;;;;4408751;32;20041;-75
2022/11/16 02:25:50;;;;;;;32.13;25.50;;;;;;;;;;4424201;32;20083;-75
2022/11/16 02:28:21;;;;;;;35.80;29.20;;;;;;;;;;4424282;32;20393;-75
2022/11/16 02:30:49;;;;;;;29.83;25.45;;;;;;;;;;4424728;32;20029;-75
2022/11/16 02:33:17;;;;;;;33.35;26.17;;;;;;;;;;4426681;32;20045;-76
2022/11/16 02:35:53;;;;;;;38.95;30.83;;;;;;;;;;4423340;32;20034;-75
2022/11/16 02:38:22;;;;;;;32.70;26.48;;;;;;;;;;4423497;32;20060;-75
2022/11/16 02:40:49;;;;;;;35.17;28.33;;;;;;;;;;4422649;32;20033;-75
2022/11/16 02:43:35;;;;;;;33.75;27.48;;;;;;;;;;4422532;32;20428;-75
2022/11/16 02:46:03;;;;;;;47.47;32.58;;;;;;;;;;4421595;32;20085;-75
2022/11/16 02:48:31;;;;;;;36.80;29.40;;;;;;;;;;4423321;32;20030;-75
2022/11/16 02:50:57;;;;;;;42.35;31.42;;;;;;;;;;4407367;32;20077;-75
2022/11/16 02:53:22;;;;;;;;;;;;;;;;;;4421999;32;20075;-75
2022/11/16 02:55:47;;;;;;;47.80;32.97;;;;;;;;;;4409464;32;19975;-75
2022/11/16 02:58:12;;;;;;;;;;;;;;;;;;4409257;32;20196;-75
2022/11/16 03:00:54;;;;;;;41.88;31.23;;;;;;;;;;4421630;32;19940;-75
2022/11/16 03:03:28;;;;;;;33.63;26.95;;;;;;;;;;4422191;32;20030;-75
2022/11/16 03:05:57;;;;;;;38.65;30.60;;;;;;;;;;4423207;32;20030;-75
2022/11/16 03:08:25;;;;;;;31.52;24.30;;;;;;;;;;4421742;32;20098;-75
2022/11/16 03:13:40;;;;;;;33.08;25.85;;;;;;;;;;4423160;32;20141;-75
2022/11/16 03:16:05;;;;;;;;;;;;;;;;;;4423115;32;20405;-75
2022/11/16 03:18:30;;;;;;;37.53;27.92;;;;;;;;;;4423175;32;19948;-75
2022/11/16 03:21:02;;;;;;;34.42;26.73;;;;;;;;;;4408941;32;20083;-75
2022/11/16 03:23:28;;;;;;;29.98;23.60;;;;;;;;;;4421085;32;20399;-74
2022/11/16 03:25:53;;;;;;;;;;;;;;;;;;4422472;32;20022;-74
2022/11/16 03:28:31;;;;;;;34.17;25.08;;;;;;;;;;4420816;32;19947;-74
2022/11/16 03:31:03;;;;;;;34.50;26.92;;;;;;;;;;4408655;32;20152;-75
2022/11/16 03:33:31;;;;;;;27.92;23.42;;;;;;;;;;4422657;32;20022;-74
2022/11/16 03:36:11;;;;;;;39.22;27.45;;;;;;;;;;4422213;32;20105;-74
2022/11/16 03:38:38;;;;;;;33.13;23.77;;;;;;;;;;4422253;32;20290;-74
2022/11/16 03:41:05;;;;;;;30.17;22.42;;;;;;;;;;4408745;32;20030;-73
2022/11/16 03:43:32;;;;;;;27.20;21.65;;;;;;;;;;4408244;32;20053;-73
2022/11/16 03:45:58;;;;;;;28.77;20.73;;;;;;;;;;4421547;32;20449;-73
2022/11/16 03:48:23;;;;;;;;;;;;;;;;;;4421523;32;20396;-73
2022/11/16 03:50:48;;;;;;;27.00;20.15;;;;;;;;;;4420480;32;20306;-74
2022/11/16 03:53:13;;;;;;;34.75;23.42;;;;;;;;;;4422062;32;20048;-73
2022/11/16 03:55:38;;;;;;;23.73;18.02;;;;;;;;;;4421137;32;20455;-73
2022/11/16 03:58:03;;;;;;;;;;;;;;;;;;4421377;32;20026;-74
2022/11/16 04:00:29;;;;;;;25.98;19.25;;;;;;;;;;4422089;32;19949;-74
2022/11/16 04:02:54;;;;;;;24.73;18.75;;;;;;;;;;4420245;32;20049;-74
2022/11/16 04:24:33;;;;;;;19.92;15.95;;;;;;;;;;4437140;32;20032;-74
2022/11/16 04:29:44;;;;;;;20.23;14.20;;;;;;;;;;4436536;32;20159;-74
2022/11/16 04:37:53;;;;;;;22.48;15.60;;;;;;;;;;4437465;32;20059;-73
2022/11/16 04:40:19;;;;;;;23.38;16.52;;;;;;;;;;4435096;32;20375;-73
2022/11/16 04:42:51;;;;;;;30.40;18.02;;;;;;;;;;4425775;32;20101;-73
2022/11/16 04:48:01;;;;;;;21.62;15.73;;;;;;;;;;4422709;32;20461;-74
2022/11/16 04:50:26;;;;;;;;;;;;;;;;;;4422443;32;20026;-74
2022/11/16 04:52:51;;;;;;;31.08;18.65;;;;;;;;;;4420853;32;19971;-74
2022/11/16 04:55:16;;;;;;;;;;;;;;;;;;4420880;32;20122;-74
2022/11/16 04:57:41;;;;;;;22.13;16.12;;;;;;;;;;4422158;32;20318;-74
2022/11/16 05:00:07;;;;;;;24.10;18.40;;;;;;;;;;4421631;32;20052;-73
2022/11/16 05:02:32;;;;;;;;;;;;;;;;;;4422627;32;20407;-73
2022/11/16 05:04:57;;;;;;;28.30;20.20;;;;;;;;;;4426002;32;19947;-73
2022/11/16 05:07:22;;;;;;;36.50;20.62;;;;;;;;;;4407969;32;20030;-74
2022/11/16 05:09:47;;;;;;;33.97;19.35;;;;;;;;;;4420576;32;20097;-74
2022/11/16 05:12:23;;;;;;;25.95;19.27;;;;;;;;;;4421855;32;20050;-74
2022/11/16 05:14:48;;;;;;;26.43;18.83;;;;;;;;;;4420697;32;20056;-74
2022/11/16 05:17:13;;;;;;;;;;;;;;;;;;4422077;32;20037;-74
2022/11/16 05:22:22;;;;;;;37.78;21.45;;;;;;;;;;4421585;32;20048;-74
2022/11/16 05:24:48;;;;;;;;;;;;;;;;;;4422055;32;20030;-74
2022/11/16 05:27:14;;;;;;;28.98;17.42;;;;;;;;;;4419672;32;19932;-75
2022/11/16 05:29:39;;;;;;;29.40;19.70;;;;;;;;;;4420520;32;20026;-74
2022/11/16 05:32:04;;;;;;;;;;;;;;;;;;4421657;32;20064;-74
2022/11/16 05:34:29;;;;;;;28.60;19.10;;;;;;;;;;4407608;32;20016;-74
2022/11/16 05:36:55;;;;;;;29.17;17.17;;;;;;;;;;4421777;32;20108;-74
2022/11/16 05:39:20;;;;;;;;;;;;;;;;;;4420846;32;20432;-74
2022/11/16 05:41:46;;;;;;;19.73;14.20;;;;;;;;;;4419584;32;19975;-74
2022/11/16 05:44:11;;;;;;;;;;;;;;;;;;4406211;32;20133;-74
2022/11/16 05:46:36;;;;;;;23.98;13.90;;;;;;;;;;4421974;32;19978;-74
2022/11/16 05:49:01;;;;;;;;;;;;;;;;;;4420677;32;20152;-74
2022/11/16 05:51:27;;;;;;;19.00;10.32;;;;;;;;;;4419856;32;19941;-74
2022/11/16 05:53:52;;;;;;;;;;;;;;;;;;4422777;32;20354;-74
2022/11/16 05:56:17;;;;;;;15.90;10.27;;;;;;;;;;4423123;32;19979;-73
2022/11/16 05:58:42;;;;;;;;;;;;;;;;;;4424793;32;20098;-74
2022/11/16 06:01:08;;;;;;;14.20;7.30;;;;;;;;;;4424092;32;20383;-73
2022/11/16 06:03:35;;;;;;;16.80;8.07;;;;;;;;;;4422272;32;20021;-74
2022/11/16 06:06:00;;;;;;;18.30;8.15;;;;;;;;;;4409864;32;20054;-74
2022/11/16 06:08:25;;;;;;;;;;;;;;;;;;4408626;32;20044;-74
2022/11/16 06:10:50;;;;;;;21.55;8.95;;;;;;;;;;4423171;32;19980;-74
2022/11/16 06:13:15;;;;;;;;;;;;;;;;;;4422149;32;20109;-74
2022/11/16 06:15:40;;;;;;;15.75;7.47;;;;;;;;;;4408653;32;20213;-74
2022/11/16 06:18:06;;;;;;;;;;;;;;;;;;4423836;32;20114;-74
2022/11/16 06:20:31;;;;;;;24.85;7.80;;;;;;;;;;4422029;32;19933;-74
2022/11/16 06:22:56;;;;;;;14.80;8.50;;;;;;;;;;4422060;32;20075;-74
2022/11/16 06:25:21;;;;;;;;;;;;;;;;;;4427487;32;20053;-74
2022/11/16 06:27:46;;;;;;;14.98;7.85;;;;;;;;;;4425364;32;19979;-74
2022/11/16 06:30:12;;;;;;;22.77;7.93;;;;;;;;;;4421692;32;20018;-74
2022/11/16 06:32:37;;;;;;;;;;;;;;;;;;4423928;32;20022;-73
2022/11/16 06:35:02;;;;;;;10.10;6.32;;;;;;;;;;4409711;32;19988;-74
2022/11/16 06:37:27;;;;;;;21.75;9.30;;;;;;;;;;4423173;32;20111;-75
2022/11/16 06:39:53;;;;;;;;;;;;;;;;;;4408114;32;20034;-74
2022/11/16 06:42:18;;;;;;;15.15;8.02;;;;;;;;;;4423606;32;19970;-75
2022/11/16 06:44:43;;;;;;;17.77;9.18;;;;;;;;;;4422881;32;20360;-73
2022/11/16 06:47:08;;;;;;;;;;;;;;;;;;4422764;32;20048;-74
2022/11/16 06:49:33;;;;;;;16.58;7.10;;;;;;;;;;4423168;32;19948;-74
2022/11/16 06:51:58;;;;;;;16.20;7.00;;;;;;;;;;4407959;32;20018;-74
2022/11/16 06:54:24;;;;;;;29.50;12.32;;;;;;;;;;4422666;32;20117;-75
2022/11/16 06:56:49;;;;;;;;;;;;;;;;;;4430280;32;20525;-73
2022/11/16 06:59:14;;;;;;;14.93;5.53;;;;;;;;;;4426041;32;19941;-73
2022/11/16 07:01:39;;;;;;;;;;;;;;;;;;4410538;32;20180;-74
2022/11/16 07:04:04;;;;;;;10.52;4.55;;;;;;;;;;4409519;32;19937;-73
2022/11/16 07:06:29;;;;;;;;;;;;;;;;;;4422570;32;20172;-73
2022/11/16 07:08:55;;;;;;;11.27;3.92;;;;;;;;;;4409056;32;19941;-74
2022/11/16 07:11:20;;;;;;;;;;;;;;;;;;4411467;32;20061;-74
2022/11/16 07:13:45;;;;;;;11.68;4.26;;;;;;;;;;4404942;32;19945;-73
2022/11/16 07:16:10;;;;;;;;;;;;;;;;;;4389918;32;20050;-73
2022/11/16 07:18:36;;;;;;;20.00;4.70;;;;;;;;;;4406196;32;20300;-74
2022/11/16 07:21:09;;;;;;;16.23;4.70;;;;;;;;;;4392223;32;20168;-74
2022/11/16 07:23:35;;;;;;;14.02;4.93;;;;;;;;;;4419401;32;20470;-74
2022/11/16 07:26:00;;;;;;;;;;;;;;;;;;4415354;32;20030;-74
2022/11/16 07:28:26;;;;;;;20.40;5.40;;;;;;;;;;4421696;32;19949;-74
2022/11/16 07:30:51;;;;;;;17.08;7.80;;;;;;;;;;4435910;32;20125;-74
2022/11/16 07:33:17;;;;;;;;;;;;;;;;;;4438811;32;20063;-73
2022/11/16 07:35:42;;;;;;;13.30;5.90;;;;;;;;;;4438003;32;19947;-74
2022/11/16 07:38:07;;;;;;;14.07;6.80;;;;;;;;;;4422734;32;20022;-74
2022/11/16 07:40:32;;;;;;;;;;;;;;;;;;4421566;32;20030;-74
2022/11/16 07:42:57;;;;;;;16.37;6.57;;;;;;;;;;4422526;32;19974;-74
2022/11/16 07:45:22;;;;;;;19.92;8.27;;;;;;;;;;4421475;32;20414;-73
2022/11/16 07:47:51;;;;;;;;;;;;;;;;;;4424725;32;20038;-74
2022/11/16 07:50:16;;;;;;;19.10;6.97;;;;;;;;;;4421502;32;20049;-74
2022/11/16 07:52:45;;;;;;;;;;;;;;;;;;4422622;32;20026;-73
2022/11/16 07:55:10;;;;;;;22.77;7.10;;;;;;;;;;4420596;32;19977;-73
2022/11/16 07:57:35;;;;;;;;;;;;;;;;;;4406832;32;20454;-73
2022/11/16 08:00:00;;;;;;;13.60;8.27;;;;;;;;;;4422019;32;19964;-74
2022/11/16 08:02:25;;;;;;;;;;;;;;;;;;4422191;32;20183;-73
2022/11/16 08:04:51;;;;;;;13.98;7.57;;;;;;;;;;4421830;32;19994;-71
2022/11/16 08:07:16;;;;;;;25.75;9.20;;;;;;;;;;4421361;32;20407;-73
2022/11/16 08:09:41;;;;;;;;;;;;;;;;;;4422037;32;20068;-72
2022/11/16 08:12:07;;;;;;;22.02;8.82;;;;;;;;;;4421052;32;20311;-72
2022/11/16 08:14:32;;;;;;;;;;;;;;;;;;4421483;32;20022;-71
2022/11/16 08:16:57;;;;;;;24.67;11.00;;;;;;;;;;4421746;32;19937;-71
2022/11/16 08:19:22;;;;;;;16.02;10.15;;;;;;;;;;4422297;32;20025;-72
2022/11/16 08:21:47;;;;;;;22.02;10.05;;;;;;;;;;4421563;32;20082;-72
2022/11/16 08:24:12;;;;;;;;;;;;;;;;;;4434848;32;20320;-71
2022/11/16 08:26:37;;;;;;;19.77;9.52;;;;;;;;;;4435841;32;20324;-70
2022/11/16 08:29:03;;;;;;;22.83;11.52;;;;;;;;;;4436944;32;20097;-71
2022/11/16 08:31:28;;;;;;;22.33;10.45;;;;;;;;;;4421509;32;20070;-71
2022/11/16 08:33:53;;;;;;;22.55;10.20;;;;;;;;;;4437247;32;20029;-71
2022/11/16 08:36:19;;;;;;;25.75;10.07;;;;;;;;;;4432399;32;20175;-71
2022/11/16 08:38:44;;;;;;;;;;;;;;;;;;4420743;32;20444;-72
2022/11/16 08:41:09;;;;;;;18.55;8.73;;;;;;;;;;4422762;32;20048;-69
2022/11/16 08:43:34;;;;;;;21.70;9.48;;;;;;;;;;4407066;32;20466;-70
2022/11/16 08:46:00;;;;;;;;;;;;;;;;;;4407593;32;20072;-71
2022/11/16 08:48:25;;;;;;;18.92;7.90;;;;;;;;;;4421447;32;19998;-70
2022/11/16 08:50:50;;;;;;;;;;;;;;;;;;4429147;32;20052;-70
2022/11/16 08:53:15;;;;;;;20.32;7.24;;;;;;;;;;4413331;32;19973;-70
2022/11/16 08:55:41;;;;;;;;;;;;;;;;;;4429697;32;20046;-71
2022/11/16 08:58:06;;;;;;;20.02;6.78;;;;;;;;;;4413735;32;19930;-70
2022/11/16 09:00:31;;;;;;;;;;;;;;;;;;4428797;32;20026;-70
2022/11/16 09:02:57;;;;;;;15.68;6.57;;;;;;;;;;4427274;32;20060;-70
2022/11/16 09:05:22;;;;;;;17.23;6.15;;;;;;;;;;4428179;32;20045;-70
2022/11/16 09:07:47;;;;;;;;;;;;;;;;;;4414977;32;20078;-70
2022/11/16 09:10:12;;;;;;;24.00;6.28;;;;;;;;;;4425913;32;19944;-70
2022/11/16 09:12:38;;;;;;;15.73;5.75;;;;;;;;;;4426085;32;20026;-69
2022/11/16 09:15:03;;;;;;;;;;;;;;;;;;4428835;32;20050;-71
2022/11/16 09:17:28;;;;;;;19.80;6.18;;;;;;;;;;4428508;32;19945;-70
2022/11/16 09:19:53;;;;;;;13.77;6.50;;;;;;;;;;4428509;32;20110;-71
2022/11/16 09:22:19;;;;;;;;;;;;;;;;;;4426268;32;20096;-71
2022/11/16 09:24:44;;;;;;;24.02;6.65;;;;;;;;;;4422724;32;19944;-72
2022/11/16 09:27:09;;;;;;;;;;;;;;;;;;4422128;32;20308;-70
2022/11/16 09:29:34;;;;;;;19.67;8.70;;;;;;;;;;4427067;32;19933;-71
2022/11/16 09:32:01;;;;;;;18.55;8.32;;;;;;;;;;4430124;32;20087;-71
2022/11/16 09:34:26;;;;;;;18.00;7.95;;;;;;;;;;4431104;32;20050;-68
2022/11/16 09:36:51;;;;;;;;;;;;;;;;;;4432840;32;20056;-69
2022/11/16 09:39:16;;;;;;;21.05;7.68;;;;;;;;;;4432623;32;19933;-69
2022/11/16 09:41:42;;;;;;;;;;;;;;;;;;4432067;32;20165;-70
2022/11/16 09:44:10;;;;;;;21.42;8.23;;;;;;;;;;4432181;32;19934;-71
2022/11/16 09:46:44;;;;;;;15.95;7.00;;;;;;;;;;4432282;32;20023;-72
2022/11/16 09:49:12;;;;;;;21.02;7.80;;;;;;;;;;4431641;32;20454;-70
2022/11/16 09:51:38;;;;;;;15.35;6.70;;;;;;;;;;4431226;32;20026;-71
2022/11/16 09:54:06;;;;;;;12.27;6.47;;;;;;;;;;4431044;32;20018;-70
2022/11/16 09:56:34;;;;;;;16.35;6.25;;;;;;;;;;4431059;32;20132;-69
2022/11/16 09:59:08;;;;;;;19.65;7.30;;;;;;;;;;4434974;32;20051;-71
2022/11/16 10:01:40;;;;;;;23.12;6.90;;;;;;;;;;4433615;32;20018;-68
2022/11/16 10:04:11;;;;;;;14.60;6.82;;;;;;;;;;4415566;32;20026;-70
2022/11/16 10:06:39;;;;;;;23.48;6.57;;;;;;;;;;4430370;32;20174;-70
2022/11/16 10:09:05;;;;;;;40.92;7.15;;;;;;;;;;4418407;32;20022;-71
2022/11/16 10:11:30;;;;;;;;;;;;;;;;;;4432731;32;20072;-69
2022/11/16 10:14:01;;;;;;;13.70;4.90;;;;;;;;;;4431952;32;20325;-71
2022/11/16 10:16:33;;;;;;;14.60;4.95;;;;;;;;;;4430669;32;20129;-70
2022/11/16 10:19:13;;;;;;;16.30;7.35;;;;;;;;;;4428528;32;20068;-70
2022/11/16 10:21:56;;;;;;;16.10;5.32;;;;;;;;;;4428753;32;20079;-71
2022/11/16 10:24:22;;;;;;;10.13;4.43;;;;;;;;;;4427573;32;20045;-70
2022/11/16 10:26:54;;;;;;;15.63;4.85;;;;;;;;;;4424773;32;20102;-70
2022/11/16 10:29:38;;;;;;;17.05;4.62;;;;;;;;;;4412569;32;20392;-71
2022/11/16 10:32:12;;;;;;;14.93;4.97;;;;;;;;;;4428542;32;20021;-70
2022/11/16 10:34:53;;;;;;;16.05;4.80;;;;;;;;;;4422992;32;20022;-70
2022/11/16 10:37:20;;;;;;;15.77;4.50;;;;;;;;;;4421509;32;20149;-70
2022/11/16 10:39:46;;;;;;;14.77;4.12;;;;;;;;;;4423935;32;20042;-70
2022/11/16 10:42:13;;;;;;;11.68;3.80;;;;;;;;;;4425601;32;20093;-70
2022/11/16 10:44:43;;;;;;;11.73;3.40;;;;;;;;;;4423045;32;20379;-70
2022/11/16 10:47:21;;;;;;;12.13;5.47;;;;;;;;;;4423796;32;20038;-69
2022/11/16 10:49:58;;;;;;;14.57;4.55;;;;;;;;;;4422385;32;20438;-69
2022/11/16 10:52:24;;;;;;;;;;;;;;;;;;4408285;32;20078;-70
2022/11/16 10:54:49;;;;;;;18.15;3.92;;;;;;;;;;4421041;32;19933;-69
2022/11/16 10:57:14;;;;;;;;;;;;;;;;;;4423498;32;20025;-70
2022/11/16 10:59:49;;;;;;;17.52;4.25;;;;;;;;;;4421001;32;19991;-70
2022/11/16 11:02:24;;;;;;;14.40;4.35;;;;;;;;;;4407867;32;20021;-70
2022/11/16 11:05:07;;;;;;;12.90;2.70;;;;;;;;;;4421454;32;20339;-70
2022/11/16 11:07:35;;;;;;;12.15;3.08;;;;;;;;;;4422349;32;20026;-71
2022/11/16 11:10:00;;;;;;;9.55;2.80;;;;;;;;;;4423256;32;20057;-69
2022/11/16 11:12:38;;;;;;;;;;;;;;;;;;4422713;32;20026;-70
2022/11/16 11:15:09;;;;;;;9.52;2.92;;;;;;;;;;4421560;32;19941;-70
2022/11/16 11:17:34;;;;;;;20.45;3.12;;;;;;;;;;4420308;32;20097;-70
2022/11/16 11:19:59;;;;;;;;;;;;;;;;;;4407556;32;20088;-70
2022/11/16 11:22:25;;;;;;;13.10;3.10;;;;;;;;;;4421382;32;19960;-69
2022/11/16 11:24:51;;;;;;;9.93;2.72;;;;;;;;;;4406674;32;20096;-70
2022/11/16 11:27:24;;;;;;;8.65;3.20;;;;;;;;;;4421004;32;20022;-69
2022/11/16 11:29:51;;;;;;;15.40;3.55;;;;;;;;;;4408185;32;20091;-71
2022/11/16 11:32:17;;;;;;;10.70;3.40;;;;;;;;;;4405740;32;20403;-70
2022/11/16 11:34:46;;;;;;;16.20;3.75;;;;;;;;;;4420330;32;20022;-70
2022/11/16 11:37:17;;;;;;;9.07;2.97;;;;;;;;;;4419329;32;20064;-69
2022/11/16 11:39:42;;;;;;;11.23;3.92;;;;;;;;;;4419131;32;20071;-70
2022/11/16 11:42:07;;;;;;;;;;;;;;;;;;4419628;32;20413;-70
2022/11/16 11:44:51;;;;;;;9.93;2.47;;;;;;;;;;4419423;32;19970;-69
2022/11/16 11:47:16;;;;;;;10.52;2.70;;;;;;;;;;4406707;32;20333;-68
2022/11/16 11:49:48;;;;;;;10.13;2.67;;;;;;;;;;4423763;32;20363;-70
2022/11/16 11:52:18;;;;;;;13.75;3.05;;;;;;;;;;4423362;32;20049;-68
2022/11/16 11:54:46;;;;;;;12.68;2.95;;;;;;;;;;4419879;32;20278;-69
2022/11/16 11:57:14;;;;;;;17.33;3.10;;;;;;;;;;4424990;32;20070;-69
2022/11/16 11:59:40;;;;;;;12.07;3.37;;;;;;;;;;4404681;32;20055;-70
2022/11/16 12:02:05;;;;;;;;;;;;;;;;;;4420159;32;20034;-69
2022/11/16 12:04:50;;;;;;;10.43;2.70;;;;;;;;;;4407033;32;20263;-70
2022/11/16 12:07:24;;;;;;;9.02;2.45;;;;;;;;;;4420620;32;20091;-69
2022/11/16 12:09:57;;;;;;;9.18;2.60;;;;;;;;;;4420355;32;20447;-69
2022/11/16 12:12:37;;;;;;;10.02;2.42;;;;;;;;;;4408214;32;20364;-70
2022/11/16 12:15:14;;;;;;;7.45;2.03;;;;;;;;;;4419785;32;20045;-70
2022/11/16 12:17:54;;;;;;;10.30;2.78;;;;;;;;;;4422650;32;20027;-69
2022/11/16 12:20:27;;;;;;;10.68;2.78;;;;;;;;;;4419983;32;20077;-70
2022/11/16 12:23:11;;;;;;;7.82;2.80;;;;;;;;;;4404719;32;20105;-70
2022/11/16 12:25:39;;;;;;;9.55;2.65;;;;;;;;;;4408287;32;20449;-69
2022/11/16 12:28:07;;;;;;;7.47;2.35;;;;;;;;;;4420823;32;20022;-70
2022/11/16 12:30:37;;;;;;;20.88;4.18;;;;;;;;;;4407387;32;20408;-69
2022/11/16 12:33:25;;;;;;;14.43;3.72;;;;;;;;;;4420348;32;20025;-70
2022/11/16 12:35:56;;;;;;;9.85;3.12;;;;;;;;;;4409555;32;20077;-70
2022/11/16 12:38:28;;;;;;;8.18;2.78;;;;;;;;;;4420703;32;20026;-69
2022/11/16 12:40:59;;;;;;;14.18;2.70;;;;;;;;;;4421265;32;20236;-69
2022/11/16 12:43:31;;;;;;;15.13;3.55;;;;;;;;;;4419966;32;20467;-69
2022/11/16 12:46:09;;;;;;;13.25;3.28;;;;;;;;;;4419601;32;20026;-69
2022/11/16 12:48:41;;;;;;;9.55;2.80;;;;;;;;;;4421316;32;20022;-69
2022/11/16 12:51:24;;;;;;;8.60;2.83;;;;;;;;;;4419991;32;20138;-69
2022/11/16 12:53:55;;;;;;;15.68;3.30;;;;;;;;;;4419440;32;20033;-69
2022/11/16 12:56:39;;;;;;;15.00;3.45;;;;;;;;;;4419206;32;20061;-69
2022/11/16 12:59:19;;;;;;;7.43;2.60;;;;;;;;;;4421355;32;20030;-70
2022/11/16 13:01:50;;;;;;;12.07;3.25;;;;;;;;;;4422203;32;20045;-69
2022/11/16 13:04:19;;;;;;;11.95;3.35;;;;;;;;;;4422772;32;20412;-69
2022/11/16 13:06:49;;;;;;;8.65;2.83;;;;;;;;;;4419132;32;20069;-70
2022/11/16 13:09:16;;;;;;;10.25;3.10;;;;;;;;;;4407536;32;20023;-68
2022/11/16 13:11:43;;;;;;;8.40;2.40;;;;;;;;;;4392324;32;20071;-68
2022/11/16 13:14:14;;;;;;;10.30;3.25;;;;;;;;;;4406441;32;20093;-70
2022/11/16 13:16:40;;;;;;;11.80;2.62;;;;;;;;;;4392393;32;20078;-69
2022/11/16 13:19:05;;;;;;;;;;;;;;;;;;4407845;32;20027;-69
2022/11/16 13:21:41;;;;;;;8.13;2.67;;;;;;;;;;4414373;32;19979;-70
2022/11/16 13:24:22;;;;;;;11.05;2.92;;;;;;;;;;4408283;32;20053;-69
2022/11/16 13:26:53;;;;;;;7.97;2.85;;;;;;;;;;4415925;32;20052;-69
2022/11/16 13:29:32;;;;;;;12.70;3.08;;;;;;;;;;4422465;32;20056;-69
2022/11/16 13:32:16;;;;;;;13.07;2.90;;;;;;;;;;4409013;32;20049;-69
2022/11/16 13:34:42;;;;;;;9.40;3.20;;;;;;;;;;4422779;32;20379;-70
2022/11/16 13:37:26;;;;;;;9.88;2.60;;;;;;;;;;4412702;32;20057;-69
2022/11/16 13:39:57;;;;;;;14.60;3.42;;;;;;;;;;4406163;32;20055;-70
2022/11/16 13:42:22;;;;;;;14.02;4.35;;;;;;;;;;4408588;32;20153;-70
2022/11/16 13:44:48;;;;;;;;;;;;;;;;;;4393736;32;20332;-69
2022/11/16 13:47:20;;;;;;;11.55;2.83;;;;;;;;;;4407732;32;19992;-70
2022/11/16 13:49:55;;;;;;;13.65;3.22;;;;;;;;;;4394029;32;20318;-70
2022/11/16 13:52:20;;;;;;;11.05;3.47;;;;;;;;;;4421949;32;20459;-70
2022/11/16 13:54:45;;;;;;;;;;;;;;;;;;4423177;32;20052;-69
2022/11/16 13:57:22;;;;;;;16.10;3.83;;;;;;;;;;4423488;32;19980;-70
2022/11/16 13:59:50;;;;;;;12.27;3.05;;;;;;;;;;4422455;32;20148;-70
2022/11/16 14:02:32;;;;;;;12.85;3.80;;;;;;;;;;4408392;32;20141;-71
2022/11/16 14:05:17;;;;;;;12.75;2.97;;;;;;;;;;4421979;32;20021;-70
2022/11/16 14:07:46;;;;;;;15.15;3.65;;;;;;;;;;4408560;32;20448;-70
2022/11/16 14:10:31;;;;;;;6.97;2.67;;;;;;;;;;4421895;32;20079;-69
2022/11/16 14:12:56;;;;;;;16.08;3.05;;;;;;;;;;4421920;32;20378;-70
2022/11/16 14:15:22;;;;;;;;;;;;;;;;;;4423017;32;20075;-70
2022/11/16 14:18:08;;;;;;;10.13;2.67;;;;;;;;;;4421220;32;20247;-69
2022/11/16 14:20:37;;;;;;;14.97;2.87;;;;;;;;;;4406219;32;20385;-70
2022/11/16 14:23:07;;;;;;;11.93;3.67;;;;;;;;;;4423403;32;20057;-69
2022/11/16 14:25:43;;;;;;;10.27;3.05;;;;;;;;;;4424650;32;20025;-70
2022/11/16 14:28:27;;;;;;;14.20;3.92;;;;;;;;;;4421618;32;20042;-70
2022/11/16 14:30:58;;;;;;;11.15;3.45;;;;;;;;;;4421621;32;20078;-69
2022/11/16 14:33:29;;;;;;;10.85;3.25;;;;;;;;;;4406595;32;20472;-69
2022/11/16 14:35:54;;;;;;;10.38;3.37;;;;;;;;;;4420546;32;20398;-69
2022/11/16 14:38:19;;;;;;;;;;;;;;;;;;4420480;32;20057;-69
2022/11/16 14:40:46;;;;;;;9.60;2.65;;;;;;;;;;4421829;32;19937;-70
2022/11/16 14:43:19;;;;;;;12.65;3.28;;;;;;;;;;4420639;32;20316;-69
2022/11/16 14:45:50;;;;;;;12.98;3.17;;;;;;;;;;4408007;32;20116;-69
2022/11/16 14:48:18;;;;;;;11.52;5.00;;;;;;;;;;4420955;32;20031;-70
2022/11/16 14:50:45;;;;;;;13.27;3.67;;;;;;;;;;4407279;32;20049;-70
2022/11/16 14:53:13;;;;;;;10.57;2.97;;;;;;;;;;4421434;32;20222;-70
2022/11/16 14:55:43;;;;;;;15.57;2.92;;;;;;;;;;4420051;32;20054;-70
2022/11/16 14:58:17;;;;;;;15.10;2.80;;;;;;;;;;4422136;32;20056;-69
2022/11/16 15:00:56;;;;;;;16.05;4.85;;;;;;;;;;4420614;32;20348;-71
2022/11/16 15:03:24;;;;;;;17.10;3.90;;;;;;;;;;4420530;32;20018;-70
2022/11/16 15:05:49;;;;;;;12.10;2.97;;;;;;;;;;4420997;32;20029;-70
2022/11/16 15:08:14;;;;;;;;;;;;;;;;;;4422159;32;20064;-70
2022/11/16 15:10:42;;;;;;;15.73;3.22;;;;;;;;;;4419578;32;19988;-70
2022/11/16 15:13:07;;;;;;;13.25;3.20;;;;;;;;;;4420208;32;20049;-71
2022/11/16 15:15:32;;;;;;;;;;;;;;;;;;4420622;32;20027;-70
2022/11/16 15:17:57;;;;;;;11.15;2.97;;;;;;;;;;4420460;32;19960;-70
2022/11/16 15:20:23;;;;;;;8.50;3.30;;;;;;;;;;4420116;32;20384;-71
2022/11/16 15:22:48;;;;;;;;;;;;;;;;;;4421158;32;20148;-70
2022/11/16 15:25:30;;;;;;;8.30;2.83;;;;;;;;;;4420458;32;20302;-71
2022/11/16 15:27:57;;;;;;;13.77;3.22;;;;;;;;;;4421713;32;20408;-69
2022/11/16 15:30:29;;;;;;;15.23;5.03;;;;;;;;;;4406539;32;20412;-70
2022/11/16 15:32:55;;;;;;;9.88;2.75;;;;;;;;;;4419762;32;20087;-69
2022/11/16 15:35:20;;;;;;;;;;;;;;;;;;4406712;32;20121;-70
2022/11/16 15:37:45;;;;;;;14.05;2.72;;;;;;;;;;4421828;32;19985;-70
2022/11/16 15:40:11;;;;;;;;;;;;;;;;;;4420544;32;20491;-69